createdAt,value
2018-08-17T00:00:03.056Z,21.70
2018-08-17T00:02:37.539Z,21.70
2018-08-17T00:05:11.437Z,21.70
2018-08-17T00:07:45.197Z,21.70
2018-08-17T00:10:19.019Z,21.70
2018-08-17T00:12:53.589Z,21.60
2018-08-17T00:15:27.398Z,21.60
2018-08-17T00:18:01.174Z,21.50
2018-08-17T00:20:35.035Z,21.40
2018-08-17T00:23:08.743Z,21.30
2018-08-17T00:25:43.252Z,21.10
2018-08-17T00:28:17.078Z,21.10
2018-08-17T00:30:50.872Z,21.10
2018-08-17T00:33:24.695Z,21.10
2018-08-17T00:35:59.315Z,21.00
2018-08-17T00:38:33.116Z,21.10
2018-08-17T00:41:07.599Z,21.00
2018-08-17T00:43:41.443Z,21.00
2018-08-17T00:46:16.029Z,21.10
2018-08-17T00:48:49.867Z,21.10
2018-08-17T00:51:23.621Z,21.10
2018-08-17T00:53:58.274Z,21.00
2018-08-17T00:56:32.692Z,21.00
2018-08-17T00:59:06.564Z,21.00
2018-08-17T01:01:41.758Z,20.80
2018-08-17T01:04:15.676Z,20.80
2018-08-17T01:06:50.288Z,20.80
2018-08-17T01:09:24.940Z,20.70
2018-08-17T01:11:58.746Z,20.70
2018-08-17T01:14:33.363Z,20.70
2018-08-17T01:17:07.296Z,20.60
2018-08-17T01:19:40.980Z,20.70
2018-08-17T01:22:14.825Z,20.60
2018-08-17T01:24:49.257Z,20.60
2018-08-17T01:27:23.157Z,20.60
2018-08-17T01:29:56.951Z,20.50
2018-08-17T01:32:30.715Z,20.50
2018-08-17T01:35:04.572Z,20.40
2018-08-17T01:37:38.379Z,20.40
2018-08-17T01:40:12.930Z,20.30
2018-08-17T01:42:47.571Z,20.30
2018-08-17T01:45:22.230Z,20.30
2018-08-17T01:47:56.832Z,20.30
2018-08-17T01:50:30.672Z,20.30
2018-08-17T01:53:04.408Z,20.30
2018-08-17T01:55:38.150Z,20.30
2018-08-17T01:58:12.557Z,20.30
2018-08-17T02:00:46.651Z,20.30
2018-08-17T02:03:20.452Z,20.30
2018-08-17T02:05:55.069Z,20.30
2018-08-17T02:08:29.605Z,20.20
2018-08-17T02:11:04.252Z,20.20
2018-08-17T02:13:37.879Z,20.20
2018-08-17T02:16:11.784Z,20.20
2018-08-17T02:18:45.628Z,20.10
2018-08-17T02:21:19.355Z,20.10
2018-08-17T02:23:53.897Z,20.00
2018-08-17T02:26:27.760Z,19.90
2018-08-17T02:29:01.414Z,19.90
2018-08-17T02:31:35.171Z,19.90
2018-08-17T02:34:08.972Z,19.90
2018-08-17T02:36:43.546Z,19.90
2018-08-17T02:39:17.392Z,19.90
2018-08-17T02:41:51.982Z,19.90
2018-08-17T02:44:25.773Z,19.90
2018-08-17T02:46:59.444Z,19.90
2018-08-17T02:49:33.298Z,19.90
2018-08-17T02:52:07.007Z,19.90
2018-08-17T02:54:40.720Z,19.90
2018-08-17T02:57:15.295Z,19.90
2018-08-17T02:59:49.152Z,19.80
2018-08-17T03:02:23.727Z,19.70
2018-08-17T03:04:57.650Z,19.80
2018-08-17T03:07:31.507Z,19.70
2018-08-17T03:10:05.364Z,19.70
2018-08-17T03:12:39.232Z,19.80
2018-08-17T03:15:13.157Z,19.80
2018-08-17T03:17:47.729Z,19.80
2018-08-17T03:20:21.612Z,19.70
2018-08-17T03:22:55.472Z,19.70
2018-08-17T03:25:29.188Z,19.70
2018-08-17T03:28:02.997Z,19.70
2018-08-17T03:30:36.953Z,19.70
2018-08-17T03:33:10.772Z,19.60
2018-08-17T03:35:44.668Z,19.70
2018-08-17T03:38:19.269Z,19.70
2018-08-17T03:40:52.997Z,19.60
2018-08-17T03:43:26.715Z,19.70
2018-08-17T03:46:00.596Z,19.70
2018-08-17T03:48:34.423Z,19.80
2018-08-17T03:51:08.255Z,19.80
2018-08-17T03:53:41.991Z,19.80
2018-08-17T03:56:16.620Z,19.70
2018-08-17T03:58:52.071Z,19.70
2018-08-17T04:01:25.852Z,19.70
2018-08-17T04:03:59.665Z,19.60
2018-08-17T04:06:33.323Z,19.60
2018-08-17T04:09:07.096Z,19.60
2018-08-17T04:11:40.807Z,19.60
2018-08-17T04:14:14.442Z,19.60
2018-08-17T04:16:48.207Z,19.60
2018-08-17T04:19:22.065Z,19.60
2018-08-17T04:21:55.924Z,19.50
2018-08-17T04:24:29.787Z,19.60
2018-08-17T04:27:04.360Z,19.60
2018-08-17T04:29:38.159Z,19.60
2018-08-17T04:32:11.959Z,19.60
2018-08-17T04:34:45.842Z,19.60
2018-08-17T04:37:19.717Z,19.70
2018-08-17T04:39:53.407Z,19.70
2018-08-17T04:42:27.953Z,19.80
2018-08-17T04:45:01.759Z,19.80
2018-08-17T04:47:36.271Z,19.90
2018-08-17T04:50:10.137Z,19.90
2018-08-17T04:52:43.976Z,20.00
2018-08-17T04:55:18.626Z,20.20
2018-08-17T04:57:52.468Z,20.10
2018-08-17T05:00:26.261Z,20.20
2018-08-17T05:02:59.931Z,20.10
2018-08-17T05:05:33.815Z,20.10
2018-08-17T05:08:08.409Z,20.30
2018-08-17T05:10:43.483Z,20.30
2018-08-17T05:13:19.313Z,20.30
2018-08-17T05:15:55.837Z,20.40
2018-08-17T05:18:30.427Z,20.30
2018-08-17T05:21:05.147Z,20.50
2018-08-17T05:23:39.713Z,20.60
2018-08-17T05:26:13.541Z,20.50
2018-08-17T05:28:48.331Z,20.90
2018-08-17T05:31:23.145Z,21.00
2018-08-17T05:33:57.034Z,21.00
2018-08-17T05:36:30.760Z,21.20
2018-08-17T05:39:04.599Z,21.40
2018-08-17T05:41:38.501Z,21.30
2018-08-17T05:44:12.317Z,21.30
2018-08-17T05:46:46.104Z,21.40
2018-08-17T05:49:20.819Z,21.30
2018-08-17T05:51:55.255Z,21.40
2018-08-17T05:54:29.096Z,21.40
2018-08-17T05:57:03.573Z,21.50
2018-08-17T05:59:38.229Z,21.60
2018-08-17T06:02:12.053Z,21.60
2018-08-17T06:04:45.844Z,21.60
2018-08-17T06:07:20.559Z,21.60
2018-08-17T06:09:54.378Z,21.50
2018-08-17T06:12:28.119Z,21.60
2018-08-17T06:15:01.940Z,21.70
2018-08-17T06:17:35.732Z,21.80
2018-08-17T06:20:09.582Z,21.70
2018-08-17T06:22:43.439Z,21.80
2018-08-17T06:25:17.281Z,21.80
2018-08-17T06:27:51.808Z,21.60
2018-08-17T06:30:26.400Z,21.40
2018-08-17T06:33:00.303Z,21.40
2018-08-17T06:35:34.877Z,21.30
2018-08-17T06:38:09.472Z,21.30
2018-08-17T06:40:43.256Z,21.30
2018-08-17T06:43:17.680Z,21.50
2018-08-17T06:45:52.425Z,21.70
2018-08-17T06:48:26.944Z,21.90
2018-08-17T06:51:00.976Z,21.90
2018-08-17T06:53:35.487Z,22.10
2018-08-17T06:56:09.307Z,22.10
2018-08-17T06:58:44.065Z,22.60
2018-08-17T07:01:17.971Z,22.60
2018-08-17T07:03:51.782Z,22.70
2018-08-17T07:06:25.413Z,22.70
2018-08-17T07:09:00.429Z,23.00
2018-08-17T07:11:35.017Z,23.10
2018-08-17T07:14:08.790Z,23.10
2018-08-17T07:16:42.695Z,23.30
2018-08-17T07:19:16.521Z,23.50
2018-08-17T07:21:50.217Z,23.70
2018-08-17T07:24:24.827Z,24.00
2018-08-17T07:26:59.470Z,24.30
2018-08-17T07:29:33.956Z,24.40
2018-08-17T07:32:08.723Z,24.40
2018-08-17T07:34:42.399Z,24.40
2018-08-17T07:37:16.959Z,24.50
2018-08-17T07:39:50.732Z,24.40
2018-08-17T07:42:24.608Z,24.40
2018-08-17T07:44:58.363Z,24.40
2018-08-17T07:47:32.202Z,24.20
2018-08-17T07:50:06.005Z,24.10
2018-08-17T07:52:40.633Z,24.40
2018-08-17T07:55:14.403Z,24.40
2018-08-17T07:57:49.046Z,24.80
2018-08-17T08:00:23.552Z,24.90
2018-08-17T08:02:57.284Z,24.80
2018-08-17T08:05:31.091Z,24.80
2018-08-17T08:08:04.932Z,24.90
2018-08-17T08:10:38.651Z,25.00
2018-08-17T08:13:12.296Z,25.10
2018-08-17T08:15:46.183Z,25.20
2018-08-17T08:18:20.691Z,25.50
2018-08-17T08:20:54.443Z,25.50
2018-08-17T08:23:29.149Z,26.70
2018-08-17T08:26:03.053Z,26.70
2018-08-17T08:28:36.801Z,27.90
2018-08-17T08:31:10.713Z,28.70
2018-08-17T08:33:44.364Z,29.90
2018-08-17T08:36:19.008Z,31.40
2018-08-17T08:38:53.639Z,31.80
2018-08-17T08:41:27.473Z,31.80
2018-08-17T08:44:24.278Z,32.00
2018-08-17T08:46:57.972Z,32.30
2018-08-17T08:49:32.457Z,33.40
2018-08-17T08:52:06.180Z,33.30
2018-08-17T08:54:39.816Z,33.60
2018-08-17T08:57:13.615Z,33.40
2018-08-17T08:59:47.495Z,33.90
2018-08-17T09:02:21.288Z,34.10
2018-08-17T09:04:55.144Z,34.20
2018-08-17T09:07:29.571Z,34.60
2018-08-17T09:10:03.471Z,34.50
2018-08-17T09:12:37.899Z,35.10
2018-08-17T09:15:11.592Z,35.10
2018-08-17T09:17:45.472Z,35.10
2018-08-17T09:20:19.334Z,34.10
2018-08-17T09:22:53.329Z,33.60
2018-08-17T09:25:27.028Z,34.30
2018-08-17T09:28:00.867Z,35.00
2018-08-17T09:30:34.619Z,35.80
2018-08-17T09:33:09.251Z,35.80
2018-08-17T09:35:42.840Z,35.80
2018-08-17T09:38:16.787Z,35.60
2018-08-17T09:40:51.463Z,35.20
2018-08-17T09:43:25.383Z,35.20
2018-08-17T09:45:59.924Z,35.00
2018-08-17T09:48:34.407Z,35.20
2018-08-17T09:51:08.865Z,35.30
2018-08-17T09:53:43.447Z,35.40
2018-08-17T09:56:17.211Z,35.40
2018-08-17T09:58:50.860Z,35.80
2018-08-17T10:01:24.759Z,35.50
2018-08-17T10:03:58.496Z,35.40
2018-08-17T10:06:32.226Z,35.00
2018-08-17T10:09:05.912Z,35.40
2018-08-17T10:11:40.334Z,35.00
2018-08-17T10:14:14.758Z,35.40
2018-08-17T10:16:48.583Z,35.40
2018-08-17T10:19:22.307Z,35.20
2018-08-17T10:21:56.853Z,34.60
2018-08-17T10:24:30.521Z,34.60
2018-08-17T10:27:04.335Z,35.40
2018-08-17T10:29:38.100Z,35.20
2018-08-17T10:32:11.963Z,34.50
2018-08-17T10:34:45.721Z,34.50
2018-08-17T10:37:20.200Z,34.30
2018-08-17T10:39:53.892Z,34.40
2018-08-17T10:42:27.785Z,34.10
2018-08-17T10:45:01.480Z,33.60
2018-08-17T10:47:35.241Z,33.50
2018-08-17T10:50:09.854Z,33.50
2018-08-17T10:52:43.746Z,33.50
2018-08-17T10:55:17.723Z,33.90
2018-08-17T10:57:51.838Z,34.20
2018-08-17T11:00:25.809Z,34.60
2018-08-17T11:03:00.363Z,34.60
2018-08-17T11:05:34.132Z,34.50
2018-08-17T11:08:08.700Z,35.00
2018-08-17T11:10:42.323Z,34.90
2018-08-17T11:13:16.081Z,34.20
2018-08-17T11:15:50.691Z,34.60
2018-08-17T11:18:24.452Z,34.60
2018-08-17T11:20:58.386Z,34.90
2018-08-17T11:23:32.052Z,35.10
2018-08-17T11:26:05.885Z,34.10
2018-08-17T11:28:39.700Z,33.90
2018-08-17T11:31:13.513Z,33.70
2018-08-17T11:33:47.350Z,33.10
2018-08-17T11:36:21.173Z,32.50
2018-08-17T11:38:56.747Z,32.10
2018-08-17T11:41:30.587Z,32.00
2018-08-17T11:44:04.156Z,31.70
2018-08-17T11:46:38.023Z,31.60
2018-08-17T11:49:11.911Z,31.40
2018-08-17T11:51:45.740Z,31.30
2018-08-17T11:54:20.302Z,31.30
2018-08-17T11:56:54.220Z,31.30
2018-08-17T11:59:28.792Z,31.00
2018-08-17T12:02:02.662Z,31.00
2018-08-17T12:04:36.423Z,30.70
2018-08-17T12:07:10.369Z,30.70
2018-08-17T12:09:44.222Z,30.70
2018-08-17T12:12:18.611Z,30.70
2018-08-17T12:14:53.118Z,30.90
2018-08-17T12:17:26.981Z,30.90
2018-08-17T12:20:01.601Z,31.40
2018-08-17T12:22:35.442Z,31.30
2018-08-17T12:25:10.212Z,31.40
2018-08-17T12:27:43.894Z,31.40
2018-08-17T12:30:18.544Z,31.20
2018-08-17T12:32:53.201Z,31.30
2018-08-17T12:35:26.927Z,31.30
2018-08-17T12:38:00.576Z,31.70
2018-08-17T12:40:34.328Z,31.90
2018-08-17T12:43:08.028Z,32.10
2018-08-17T12:45:41.729Z,32.00
2018-08-17T12:48:16.187Z,31.80
2018-08-17T12:50:49.993Z,31.70
2018-08-17T12:53:23.775Z,31.90
2018-08-17T12:55:57.566Z,32.10
2018-08-17T12:58:31.263Z,32.20
2018-08-17T13:01:05.032Z,32.20
2018-08-17T13:03:38.907Z,32.30
2018-08-17T13:06:12.747Z,32.40
2018-08-17T13:08:46.636Z,32.50
2018-08-17T13:11:21.292Z,32.30
2018-08-17T13:13:55.259Z,32.30
2018-08-17T13:16:29.750Z,32.00
2018-08-17T13:19:05.090Z,32.10
2018-08-17T13:21:38.881Z,32.10
2018-08-17T13:24:13.656Z,32.30
2018-08-17T13:26:48.180Z,32.10
2018-08-17T13:29:21.979Z,32.10
2018-08-17T13:31:55.767Z,32.10
2018-08-17T13:34:29.600Z,32.00
2018-08-17T13:37:03.440Z,31.90
2018-08-17T13:39:37.448Z,31.90
2018-08-17T13:42:11.376Z,32.00
2018-08-17T13:44:45.187Z,32.10
2018-08-17T13:47:18.780Z,32.00
2018-08-17T13:49:53.324Z,31.50
2018-08-17T13:52:27.100Z,31.50
2018-08-17T13:55:00.967Z,31.50
2018-08-17T13:57:34.620Z,31.70
2018-08-17T14:00:08.377Z,31.70
2018-08-17T14:02:42.123Z,31.90
2018-08-17T14:05:15.975Z,31.90
2018-08-17T14:07:49.701Z,31.90
2018-08-17T14:10:23.579Z,32.10
2018-08-17T14:12:57.404Z,32.10
2018-08-17T14:15:31.771Z,32.10
2018-08-17T14:18:05.601Z,32.00
2018-08-17T14:20:39.403Z,31.80
2018-08-17T14:23:13.177Z,31.80
2018-08-17T14:25:47.828Z,31.50
2018-08-17T14:28:21.745Z,31.40
2018-08-17T14:30:56.204Z,31.20
2018-08-17T14:33:30.090Z,31.20
2018-08-17T14:36:08.001Z,31.10
2018-08-17T14:38:41.743Z,31.10
2018-08-17T14:41:16.179Z,30.90
2018-08-17T14:43:49.883Z,30.90
2018-08-17T14:46:24.541Z,31.00
2018-08-17T14:48:59.041Z,31.00
2018-08-17T14:51:32.715Z,31.00
2018-08-17T14:54:06.369Z,31.00
2018-08-17T14:56:40.141Z,31.00
2018-08-17T14:59:13.832Z,30.90
2018-08-17T15:01:47.560Z,30.90
2018-08-17T15:04:22.044Z,30.50
2018-08-17T15:06:55.911Z,30.50
2018-08-17T15:09:30.478Z,29.70
2018-08-17T15:12:04.313Z,29.70
2018-08-17T15:14:38.818Z,29.40
2018-08-17T15:17:12.544Z,29.30
2018-08-17T15:19:46.942Z,29.20
2018-08-17T15:22:20.773Z,29.20
2018-08-17T15:24:54.440Z,29.00
2018-08-17T15:27:28.093Z,28.90
2018-08-17T15:30:02.674Z,29.00
2018-08-17T15:32:36.472Z,29.00
2018-08-17T15:35:10.227Z,29.00
2018-08-17T15:37:44.928Z,29.10
2018-08-17T15:40:19.572Z,28.60
2018-08-17T15:42:53.233Z,28.60
2018-08-17T15:45:30.211Z,28.60
2018-08-17T15:48:04.048Z,28.80
2018-08-17T15:50:38.580Z,28.60
2018-08-17T15:53:13.204Z,28.40
2018-08-17T15:55:46.954Z,28.50
2018-08-17T15:58:22.144Z,28.50
2018-08-17T16:00:55.959Z,28.50
2018-08-17T16:03:30.520Z,28.70
2018-08-17T16:06:05.694Z,28.70
2018-08-17T16:08:40.127Z,28.60
2018-08-17T16:11:13.855Z,28.60
2018-08-17T16:13:47.647Z,28.50
2018-08-17T16:16:22.341Z,28.60
2018-08-17T16:18:56.006Z,28.60
2018-08-17T16:21:30.585Z,28.70
2018-08-17T16:24:05.188Z,28.70
2018-08-17T16:26:38.942Z,28.70
2018-08-17T16:29:13.621Z,28.70
2018-08-17T16:31:48.187Z,28.80
2018-08-17T16:34:21.897Z,28.80
2018-08-17T16:36:56.374Z,28.60
2018-08-17T16:39:30.395Z,28.60
2018-08-17T16:42:04.573Z,28.40
2018-08-17T16:44:39.886Z,28.20
2018-08-17T16:47:14.493Z,28.20
2018-08-17T16:49:48.299Z,28.20
2018-08-17T16:52:22.184Z,28.20
2018-08-17T16:54:55.851Z,28.20
2018-08-17T16:57:29.665Z,28.10
2018-08-17T17:00:03.654Z,28.00
2018-08-17T17:02:37.523Z,27.80
2018-08-17T17:05:11.559Z,27.70
2018-08-17T17:07:45.718Z,27.70
2018-08-17T17:10:19.570Z,27.70
2018-08-17T17:12:53.203Z,27.60
2018-08-17T17:15:27.069Z,27.60
2018-08-17T17:18:01.653Z,27.60
2018-08-17T17:20:36.337Z,27.60
2018-08-17T17:23:10.152Z,27.60
2018-08-17T17:38:51.603Z,27.50
2018-08-17T17:41:25.463Z,27.40
2018-08-17T17:43:59.348Z,27.40
2018-08-17T17:46:33.096Z,27.30
2018-08-17T17:49:07.715Z,27.40
2018-08-17T17:51:41.483Z,27.40
2018-08-17T17:54:15.603Z,27.30
2018-08-17T17:56:49.456Z,27.30
2018-08-17T17:59:24.068Z,27.40
2018-08-17T18:01:57.810Z,27.40
2018-08-17T18:04:31.679Z,27.40
2018-08-17T18:07:05.545Z,27.40
2018-08-17T18:09:40.152Z,27.40
2018-08-17T18:12:15.396Z,27.40
2018-08-17T18:14:49.180Z,27.40
2018-08-17T18:17:23.029Z,27.40
2018-08-17T18:19:56.789Z,27.30
2018-08-17T18:22:30.661Z,27.30
2018-08-17T18:25:04.387Z,27.30
2018-08-17T18:27:38.128Z,27.30
2018-08-17T18:30:11.865Z,27.20
2018-08-17T18:32:46.420Z,27.00
2018-08-17T18:35:20.293Z,27.00
2018-08-17T18:37:54.076Z,27.00
2018-08-17T18:40:29.015Z,26.90
2018-08-17T18:43:02.645Z,26.80
2018-08-17T18:45:36.432Z,26.80
2018-08-17T18:48:11.056Z,26.60
2018-08-17T18:50:44.964Z,26.60
2018-08-17T18:53:18.745Z,26.50
2018-08-17T18:55:52.618Z,26.30
2018-08-17T18:58:26.332Z,26.20
2018-08-17T19:01:00.245Z,26.10
2018-08-17T19:03:34.133Z,26.00
2018-08-17T19:06:08.013Z,26.00
2018-08-17T19:08:41.795Z,25.90
2018-08-17T19:11:16.416Z,25.80
2018-08-17T19:13:50.927Z,25.60
2018-08-17T19:16:24.511Z,25.60
2018-08-17T19:18:58.389Z,25.60
2018-08-17T19:21:32.301Z,25.50
2018-08-17T19:24:06.155Z,25.60
2018-08-17T19:26:40.747Z,25.50
2018-08-17T19:29:14.508Z,25.50
2018-08-17T19:31:48.287Z,25.40
2018-08-17T19:34:22.175Z,25.40
2018-08-17T19:36:55.867Z,25.40
2018-08-17T19:39:29.739Z,25.40
2018-08-17T19:42:03.549Z,25.40
2018-08-17T19:44:38.139Z,25.30
2018-08-17T19:47:11.995Z,25.30
2018-08-17T19:49:45.811Z,25.10
2018-08-17T19:52:19.650Z,25.10
2018-08-17T19:54:53.450Z,25.00
2018-08-17T19:57:27.893Z,24.70
2018-08-17T20:00:01.745Z,24.70
2018-08-17T20:02:35.626Z,24.70
2018-08-17T20:05:09.371Z,24.60
2018-08-17T20:07:43.959Z,24.40
2018-08-17T20:10:17.751Z,24.40
2018-08-17T20:12:51.583Z,24.30
2018-08-17T20:15:25.340Z,24.20
2018-08-17T20:18:00.025Z,24.00
2018-08-17T20:20:33.809Z,24.00
2018-08-17T20:23:07.446Z,23.90
2018-08-17T20:25:41.200Z,23.80
2018-08-17T20:28:15.054Z,23.80
2018-08-17T20:30:48.741Z,23.70
2018-08-17T20:33:22.515Z,23.60
2018-08-17T20:35:56.284Z,23.60
2018-08-17T20:38:31.667Z,23.60
2018-08-17T20:41:05.461Z,23.60
2018-08-17T20:43:39.232Z,23.60
2018-08-17T20:46:13.036Z,23.60
2018-08-17T20:48:46.892Z,23.60
2018-08-17T20:51:20.859Z,23.50
2018-08-17T20:53:54.796Z,23.40
2018-08-17T20:56:28.619Z,23.40
2018-08-17T20:59:02.464Z,23.20
2018-08-17T21:01:36.248Z,23.10
2018-08-17T21:04:10.061Z,23.10
2018-08-17T21:06:43.873Z,23.20
2018-08-17T21:09:17.532Z,23.30
2018-08-17T21:11:52.066Z,23.30
2018-08-17T21:14:25.866Z,23.20
2018-08-17T21:16:59.833Z,23.10
2018-08-17T21:19:33.692Z,23.10
2018-08-17T21:22:07.574Z,23.10
2018-08-17T21:24:41.993Z,23.10
2018-08-17T21:27:15.767Z,23.10
2018-08-17T21:29:49.550Z,23.00
2018-08-17T21:32:23.356Z,23.00
2018-08-17T21:34:57.235Z,22.90
2018-08-17T21:37:31.232Z,22.90
2018-08-17T21:40:04.955Z,22.90
2018-08-17T21:42:40.334Z,22.90
2018-08-17T21:45:14.211Z,22.90
2018-08-17T21:47:48.834Z,23.00
2018-08-17T21:50:22.619Z,23.00
2018-08-17T21:52:56.347Z,23.00
2018-08-17T21:55:30.137Z,23.00
2018-08-17T21:58:04.027Z,23.00
2018-08-17T22:00:37.856Z,23.00
2018-08-17T22:03:11.673Z,22.90
2018-08-17T22:05:45.497Z,22.90
2018-08-17T22:08:20.013Z,22.30
2018-08-17T22:10:53.804Z,22.30
2018-08-17T22:13:28.425Z,21.20
2018-08-17T22:16:02.263Z,21.10
2018-08-17T22:18:36.803Z,20.50
2018-08-17T22:21:10.496Z,20.50
2018-08-17T22:23:44.301Z,20.10
2018-08-17T22:26:18.051Z,19.80
2018-08-17T22:28:51.886Z,19.70
2018-08-17T22:31:25.628Z,19.70
2018-08-17T22:34:00.288Z,19.60
2018-08-17T22:36:34.060Z,19.60
2018-08-17T22:39:08.529Z,19.70
2018-08-17T22:41:42.310Z,19.70
2018-08-17T22:44:16.107Z,19.80
2018-08-17T22:46:49.893Z,19.90
2018-08-17T22:49:24.365Z,19.90
2018-08-17T22:51:58.058Z,19.90
2018-08-17T22:54:32.707Z,20.10
2018-08-17T22:57:06.588Z,20.10
2018-08-17T22:59:40.544Z,20.10
2018-08-17T23:02:14.215Z,20.20
2018-08-17T23:04:48.072Z,20.20
2018-08-17T23:07:22.547Z,20.20
2018-08-17T23:09:56.371Z,20.20
2018-08-17T23:12:30.129Z,20.20
2018-08-17T23:15:03.908Z,20.20
2018-08-17T23:17:37.759Z,20.20
2018-08-17T23:20:12.270Z,20.20
2018-08-17T23:22:46.811Z,20.20
2018-08-17T23:25:20.606Z,20.20
2018-08-17T23:27:54.372Z,20.20
2018-08-17T23:30:28.135Z,20.20
2018-08-17T23:33:02.757Z,20.20
2018-08-17T23:35:36.649Z,20.20
2018-08-17T23:38:11.168Z,20.20
2018-08-17T23:40:45.043Z,20.20
2018-08-17T23:43:18.952Z,20.20
2018-08-17T23:45:53.547Z,20.10
2018-08-17T23:48:28.195Z,20.10
2018-08-17T23:51:01.938Z,20.00
2018-08-17T23:53:35.797Z,20.00
2018-08-17T23:56:10.336Z,20.00
2018-08-17T23:58:44.136Z,20.00
